sensor_id;sensor_type;location;lat;lon;timestamp;P1;durP1;ratioP1;P2;durP2;ratioP2
12925;SDS011;6529;50.566;9.774;2023-02-28T00:01:37;2.50;;;2.03;;
12925;SDS011;6529;50.566;9.774;2023-02-28T00:04:02;2.00;;;1.90;;
12925;SDS011;6529;50.566;9.774;2023-02-28T00:06:28;3.23;;;2.10;;
12925;SDS011;6529;50.566;9.774;2023-02-28T00:08:54;3.07;;;2.30;;
12925;SDS011;6529;50.566;9.774;2023-02-28T00:11:20;3.87;;;2.57;;
12925;SDS011;6529;50.566;9.774;2023-02-28T00:13:46;2.57;;;2.30;;
12925;SDS011;6529;50.566;9.774;2023-02-28T00:16:18;3.03;;;2.27;;
12925;SDS011;6529;50.566;9.774;2023-02-28T00:18:47;2.53;;;2.33;;
12925;SDS011;6529;50.566;9.774;2023-02-28T00:21:13;3.23;;;2.27;;
12925;SDS011;6529;50.566;9.774;2023-02-28T00:23:38;3.13;;;2.40;;
12925;SDS011;6529;50.566;9.774;2023-02-28T00:26:04;3.37;;;2.43;;
12925;SDS011;6529;50.566;9.774;2023-02-28T00:28:30;2.50;;;2.30;;
12925;SDS011;6529;50.566;9.774;2023-02-28T00:30:56;3.33;;;2.30;;
12925;SDS011;6529;50.566;9.774;2023-02-28T00:33:22;2.67;;;2.47;;
12925;SDS011;6529;50.566;9.774;2023-02-28T00:35:48;5.37;;;2.40;;
12925;SDS011;6529;50.566;9.774;2023-02-28T00:38:14;3.07;;;2.40;;
12925;SDS011;6529;50.566;9.774;2023-02-28T00:40:40;4.13;;;2.70;;
12925;SDS011;6529;50.566;9.774;2023-02-28T00:43:05;2.70;;;2.20;;
12925;SDS011;6529;50.566;9.774;2023-02-28T00:45:31;2.97;;;2.23;;
12925;SDS011;6529;50.566;9.774;2023-02-28T00:47:57;3.80;;;2.47;;
12925;SDS011;6529;50.566;9.774;2023-02-28T00:50:22;3.40;;;2.60;;
12925;SDS011;6529;50.566;9.774;2023-02-28T00:52:48;3.30;;;2.80;;
12925;SDS011;6529;50.566;9.774;2023-02-28T00:55:13;3.43;;;2.93;;
12925;SDS011;6529;50.566;9.774;2023-02-28T00:57:39;3.20;;;2.90;;
12925;SDS011;6529;50.566;9.774;2023-02-28T01:00:05;2.70;;;2.40;;
12925;SDS011;6529;50.566;9.774;2023-02-28T01:02:31;3.33;;;2.67;;
12925;SDS011;6529;50.566;9.774;2023-02-28T01:04:57;3.47;;;2.63;;
12925;SDS011;6529;50.566;9.774;2023-02-28T01:07:23;4.13;;;3.03;;
12925;SDS011;6529;50.566;9.774;2023-02-28T01:09:48;3.23;;;2.63;;
12925;SDS011;6529;50.566;9.774;2023-02-28T01:12:14;3.13;;;2.70;;
12925;SDS011;6529;50.566;9.774;2023-02-28T01:14:40;3.43;;;2.70;;
12925;SDS011;6529;50.566;9.774;2023-02-28T01:17:06;3.30;;;2.60;;
12925;SDS011;6529;50.566;9.774;2023-02-28T01:19:32;3.13;;;2.57;;
12925;SDS011;6529;50.566;9.774;2023-02-28T01:22:00;2.73;;;2.53;;
12925;SDS011;6529;50.566;9.774;2023-02-28T01:24:27;3.27;;;2.80;;
12925;SDS011;6529;50.566;9.774;2023-02-28T01:26:53;3.57;;;2.70;;
12925;SDS011;6529;50.566;9.774;2023-02-28T01:29:18;3.60;;;2.37;;
12925;SDS011;6529;50.566;9.774;2023-02-28T01:31:44;2.60;;;2.37;;
12925;SDS011;6529;50.566;9.774;2023-02-28T01:34:09;3.17;;;2.60;;
12925;SDS011;6529;50.566;9.774;2023-02-28T01:36:35;3.43;;;2.60;;
12925;SDS011;6529;50.566;9.774;2023-02-28T01:39:01;4.83;;;2.30;;
12925;SDS011;6529;50.566;9.774;2023-02-28T01:41:28;2.90;;;2.23;;
12925;SDS011;6529;50.566;9.774;2023-02-28T01:46:59;3.00;;;2.40;;
12925;SDS011;6529;50.566;9.774;2023-02-28T01:49:25;3.33;;;2.30;;
12925;SDS011;6529;50.566;9.774;2023-02-28T01:51:51;2.70;;;2.30;;
12925;SDS011;6529;50.566;9.774;2023-02-28T01:54:27;3.03;;;2.60;;
12925;SDS011;6529;50.566;9.774;2023-02-28T01:57:01;3.57;;;2.60;;
12925;SDS011;6529;50.566;9.774;2023-02-28T02:02:01;2.57;;;2.00;;
12925;SDS011;6529;50.566;9.774;2023-02-28T02:04:30;3.20;;;2.40;;
12925;SDS011;6529;50.566;9.774;2023-02-28T02:07:01;2.70;;;2.20;;
12925;SDS011;6529;50.566;9.774;2023-02-28T02:09:27;2.63;;;2.43;;
12925;SDS011;6529;50.566;9.774;2023-02-28T02:11:52;3.50;;;2.23;;
12925;SDS011;6529;50.566;9.774;2023-02-28T02:14:28;2.30;;;2.00;;
12925;SDS011;6529;50.566;9.774;2023-02-28T02:17:22;2.40;;;2.20;;
12925;SDS011;6529;50.566;9.774;2023-02-28T02:36:22;3.30;;;2.60;;
12925;SDS011;6529;50.566;9.774;2023-02-28T02:38:58;2.27;;;2.00;;
12925;SDS011;6529;50.566;9.774;2023-02-28T02:44:12;2.50;;;2.13;;
12925;SDS011;6529;50.566;9.774;2023-02-28T02:46:58;2.67;;;2.13;;
12925;SDS011;6529;50.566;9.774;2023-02-28T02:49:29;2.30;;;2.10;;
12925;SDS011;6529;50.566;9.774;2023-02-28T02:51:57;3.30;;;2.00;;
12925;SDS011;6529;50.566;9.774;2023-02-28T02:54:29;2.23;;;2.00;;
12925;SDS011;6529;50.566;9.774;2023-02-28T02:56:59;2.30;;;1.97;;
12925;SDS011;6529;50.566;9.774;2023-02-28T02:59:29;3.23;;;2.10;;
12925;SDS011;6529;50.566;9.774;2023-02-28T03:01:57;2.17;;;1.97;;
12925;SDS011;6529;50.566;9.774;2023-02-28T03:04:26;3.57;;;2.33;;
12925;SDS011;6529;50.566;9.774;2023-02-28T03:06:56;3.00;;;2.10;;
12925;SDS011;6529;50.566;9.774;2023-02-28T03:09:22;3.13;;;2.07;;
12925;SDS011;6529;50.566;9.774;2023-02-28T03:11:48;2.50;;;2.00;;
12925;SDS011;6529;50.566;9.774;2023-02-28T03:32:58;3.63;;;2.10;;
12925;SDS011;6529;50.566;9.774;2023-02-28T03:35:33;2.70;;;2.20;;
12925;SDS011;6529;50.566;9.774;2023-02-28T03:38:05;3.93;;;2.13;;
12925;SDS011;6529;50.566;9.774;2023-02-28T03:40:39;2.20;;;2.00;;
12925;SDS011;6529;50.566;9.774;2023-02-28T03:43:12;2.60;;;2.00;;
12925;SDS011;6529;50.566;9.774;2023-02-28T03:45:42;3.83;;;2.30;;
12925;SDS011;6529;50.566;9.774;2023-02-28T03:48:20;2.47;;;2.20;;
12925;SDS011;6529;50.566;9.774;2023-02-28T03:50:53;3.37;;;2.50;;
12925;SDS011;6529;50.566;9.774;2023-02-28T03:53:26;2.60;;;2.10;;
12925;SDS011;6529;50.566;9.774;2023-02-28T03:58:48;3.60;;;2.53;;
12925;SDS011;6529;50.566;9.774;2023-02-28T04:01:39;2.57;;;2.07;;
12925;SDS011;6529;50.566;9.774;2023-02-28T04:04:08;3.50;;;2.17;;
12925;SDS011;6529;50.566;9.774;2023-02-28T04:06:35;3.93;;;2.53;;
12925;SDS011;6529;50.566;9.774;2023-02-28T04:09:01;2.60;;;2.37;;
12925;SDS011;6529;50.566;9.774;2023-02-28T04:11:39;3.47;;;2.27;;
12925;SDS011;6529;50.566;9.774;2023-02-28T04:14:07;3.97;;;2.80;;
12925;SDS011;6529;50.566;9.774;2023-02-28T04:16:34;3.37;;;2.40;;
12925;SDS011;6529;50.566;9.774;2023-02-28T04:19:01;3.37;;;2.40;;
12925;SDS011;6529;50.566;9.774;2023-02-28T04:21:37;3.57;;;2.47;;
12925;SDS011;6529;50.566;9.774;2023-02-28T04:24:04;2.87;;;2.50;;
12925;SDS011;6529;50.566;9.774;2023-02-28T04:26:31;4.20;;;2.70;;
12925;SDS011;6529;50.566;9.774;2023-02-28T04:28:58;4.00;;;2.50;;
12925;SDS011;6529;50.566;9.774;2023-02-28T04:31:24;3.40;;;2.57;;
12925;SDS011;6529;50.566;9.774;2023-02-28T04:33:50;4.60;;;2.87;;
12925;SDS011;6529;50.566;9.774;2023-02-28T04:36:16;2.93;;;2.50;;
12925;SDS011;6529;50.566;9.774;2023-02-28T04:38:43;4.73;;;2.80;;
12925;SDS011;6529;50.566;9.774;2023-02-28T04:41:09;3.30;;;2.67;;
12925;SDS011;6529;50.566;9.774;2023-02-28T04:43:35;3.60;;;2.67;;
12925;SDS011;6529;50.566;9.774;2023-02-28T04:46:01;3.63;;;2.83;;
12925;SDS011;6529;50.566;9.774;2023-02-28T04:48:29;5.90;;;2.87;;
12925;SDS011;6529;50.566;9.774;2023-02-28T04:51:00;6.00;;;2.83;;
12925;SDS011;6529;50.566;9.774;2023-02-28T04:53:29;4.67;;;2.83;;
12925;SDS011;6529;50.566;9.774;2023-02-28T04:55:55;3.63;;;2.73;;
12925;SDS011;6529;50.566;9.774;2023-02-28T04:58:21;4.50;;;3.23;;
12925;SDS011;6529;50.566;9.774;2023-02-28T05:00:48;4.57;;;3.10;;
12925;SDS011;6529;50.566;9.774;2023-02-28T05:03:14;2.93;;;2.63;;
12925;SDS011;6529;50.566;9.774;2023-02-28T05:05:40;3.47;;;2.83;;
12925;SDS011;6529;50.566;9.774;2023-02-28T05:08:06;4.77;;;3.00;;
12925;SDS011;6529;50.566;9.774;2023-02-28T05:10:31;3.93;;;3.10;;
12925;SDS011;6529;50.566;9.774;2023-02-28T05:12:57;4.20;;;3.17;;
12925;SDS011;6529;50.566;9.774;2023-02-28T05:15:23;4.40;;;3.53;;
12925;SDS011;6529;50.566;9.774;2023-02-28T05:17:48;3.47;;;3.10;;
12925;SDS011;6529;50.566;9.774;2023-02-28T05:20:14;4.57;;;3.50;;
12925;SDS011;6529;50.566;9.774;2023-02-28T05:22:40;4.60;;;3.63;;
12925;SDS011;6529;50.566;9.774;2023-02-28T05:25:08;4.10;;;3.37;;
12925;SDS011;6529;50.566;9.774;2023-02-28T05:27:38;4.83;;;3.23;;
12925;SDS011;6529;50.566;9.774;2023-02-28T05:30:04;4.57;;;3.13;;
12925;SDS011;6529;50.566;9.774;2023-02-28T05:32:31;4.90;;;3.50;;
12925;SDS011;6529;50.566;9.774;2023-02-28T05:34:56;4.67;;;3.30;;
12925;SDS011;6529;50.566;9.774;2023-02-28T05:37:22;5.73;;;3.33;;
12925;SDS011;6529;50.566;9.774;2023-02-28T05:39:47;3.97;;;3.43;;
12925;SDS011;6529;50.566;9.774;2023-02-28T05:42:13;5.43;;;3.27;;
12925;SDS011;6529;50.566;9.774;2023-02-28T05:44:38;4.23;;;3.40;;
12925;SDS011;6529;50.566;9.774;2023-02-28T05:47:04;5.13;;;3.87;;
12925;SDS011;6529;50.566;9.774;2023-02-28T05:49:30;4.40;;;3.37;;
12925;SDS011;6529;50.566;9.774;2023-02-28T05:51:55;3.60;;;2.80;;
12925;SDS011;6529;50.566;9.774;2023-02-28T05:54:21;6.17;;;3.23;;
12925;SDS011;6529;50.566;9.774;2023-02-28T05:56:46;5.03;;;3.43;;
12925;SDS011;6529;50.566;9.774;2023-02-28T05:59:12;5.47;;;3.30;;
12925;SDS011;6529;50.566;9.774;2023-02-28T06:01:39;3.90;;;3.30;;
12925;SDS011;6529;50.566;9.774;2023-02-28T06:04:08;6.00;;;3.90;;
12925;SDS011;6529;50.566;9.774;2023-02-28T06:06:35;4.73;;;3.50;;
12925;SDS011;6529;50.566;9.774;2023-02-28T06:09:02;5.67;;;4.03;;
12925;SDS011;6529;50.566;9.774;2023-02-28T06:11:31;6.33;;;4.00;;
12925;SDS011;6529;50.566;9.774;2023-02-28T06:13:57;4.40;;;3.97;;
12925;SDS011;6529;50.566;9.774;2023-02-28T06:16:25;5.53;;;4.23;;
12925;SDS011;6529;50.566;9.774;2023-02-28T06:18:51;5.83;;;4.30;;
12925;SDS011;6529;50.566;9.774;2023-02-28T06:21:21;6.30;;;4.33;;
12925;SDS011;6529;50.566;9.774;2023-02-28T06:23:47;5.40;;;4.10;;
12925;SDS011;6529;50.566;9.774;2023-02-28T06:26:12;4.73;;;3.73;;
12925;SDS011;6529;50.566;9.774;2023-02-28T06:28:38;5.00;;;3.57;;
12925;SDS011;6529;50.566;9.774;2023-02-28T06:31:07;4.63;;;3.80;;
12925;SDS011;6529;50.566;9.774;2023-02-28T06:33:35;4.57;;;3.53;;
12925;SDS011;6529;50.566;9.774;2023-02-28T06:36:02;4.20;;;3.40;;
12925;SDS011;6529;50.566;9.774;2023-02-28T06:38:28;3.97;;;3.27;;
12925;SDS011;6529;50.566;9.774;2023-02-28T06:40:55;4.63;;;3.30;;
12925;SDS011;6529;50.566;9.774;2023-02-28T06:43:23;4.40;;;3.67;;
12925;SDS011;6529;50.566;9.774;2023-02-28T06:45:49;5.03;;;3.60;;
12925;SDS011;6529;50.566;9.774;2023-02-28T06:48:15;5.63;;;3.90;;
12925;SDS011;6529;50.566;9.774;2023-02-28T06:50:41;4.90;;;3.67;;
12925;SDS011;6529;50.566;9.774;2023-02-28T06:53:06;5.00;;;3.73;;
12925;SDS011;6529;50.566;9.774;2023-02-28T06:55:32;5.87;;;3.80;;
12925;SDS011;6529;50.566;9.774;2023-02-28T06:57:58;5.63;;;4.23;;
12925;SDS011;6529;50.566;9.774;2023-02-28T07:00:23;5.57;;;4.13;;
12925;SDS011;6529;50.566;9.774;2023-02-28T07:02:50;5.90;;;4.40;;
12925;SDS011;6529;50.566;9.774;2023-02-28T07:05:15;6.33;;;4.77;;
12925;SDS011;6529;50.566;9.774;2023-02-28T07:07:41;6.53;;;4.93;;
12925;SDS011;6529;50.566;9.774;2023-02-28T07:10:12;6.27;;;4.47;;
12925;SDS011;6529;50.566;9.774;2023-02-28T07:12:41;5.50;;;4.77;;
12925;SDS011;6529;50.566;9.774;2023-02-28T07:15:08;8.03;;;5.13;;
12925;SDS011;6529;50.566;9.774;2023-02-28T07:17:34;8.03;;;5.03;;
12925;SDS011;6529;50.566;9.774;2023-02-28T07:19:59;8.50;;;5.17;;
12925;SDS011;6529;50.566;9.774;2023-02-28T07:22:25;6.97;;;4.77;;
12925;SDS011;6529;50.566;9.774;2023-02-28T07:24:50;6.13;;;4.70;;
12925;SDS011;6529;50.566;9.774;2023-02-28T07:27:16;6.17;;;4.30;;
12925;SDS011;6529;50.566;9.774;2023-02-28T07:29:49;7.90;;;4.87;;
12925;SDS011;6529;50.566;9.774;2023-02-28T07:32:15;6.70;;;4.70;;
12925;SDS011;6529;50.566;9.774;2023-02-28T07:34:40;6.30;;;4.50;;
12925;SDS011;6529;50.566;9.774;2023-02-28T07:37:06;6.87;;;4.63;;
12925;SDS011;6529;50.566;9.774;2023-02-28T07:39:32;6.03;;;4.40;;
12925;SDS011;6529;50.566;9.774;2023-02-28T07:41:57;5.93;;;4.23;;
12925;SDS011;6529;50.566;9.774;2023-02-28T07:44:24;6.00;;;4.63;;
12925;SDS011;6529;50.566;9.774;2023-02-28T07:46:50;4.70;;;3.90;;
12925;SDS011;6529;50.566;9.774;2023-02-28T07:49:16;6.17;;;4.10;;
12925;SDS011;6529;50.566;9.774;2023-02-28T07:51:41;4.60;;;3.60;;
12925;SDS011;6529;50.566;9.774;2023-02-28T07:54:07;5.77;;;3.97;;
12925;SDS011;6529;50.566;9.774;2023-02-28T07:56:32;36.83;;;14.90;;
12925;SDS011;6529;50.566;9.774;2023-02-28T07:58:58;9.60;;;6.27;;
12925;SDS011;6529;50.566;9.774;2023-02-28T08:01:24;5.63;;;4.10;;
12925;SDS011;6529;50.566;9.774;2023-02-28T08:03:49;13.30;;;8.97;;
12925;SDS011;6529;50.566;9.774;2023-02-28T08:06:19;5.03;;;4.00;;
12925;SDS011;6529;50.566;9.774;2023-02-28T08:08:47;7.47;;;4.53;;
12925;SDS011;6529;50.566;9.774;2023-02-28T08:11:13;4.20;;;3.67;;
12925;SDS011;6529;50.566;9.774;2023-02-28T08:13:39;8.33;;;5.10;;
12925;SDS011;6529;50.566;9.774;2023-02-28T08:16:05;5.13;;;3.97;;
12925;SDS011;6529;50.566;9.774;2023-02-28T08:18:31;4.87;;;3.83;;
12925;SDS011;6529;50.566;9.774;2023-02-28T08:20:57;4.90;;;3.93;;
12925;SDS011;6529;50.566;9.774;2023-02-28T08:23:24;4.87;;;3.93;;
12925;SDS011;6529;50.566;9.774;2023-02-28T08:25:53;5.43;;;4.13;;
12925;SDS011;6529;50.566;9.774;2023-02-28T08:28:19;7.50;;;3.93;;
12925;SDS011;6529;50.566;9.774;2023-02-28T08:30:45;6.23;;;3.90;;
12925;SDS011;6529;50.566;9.774;2023-02-28T08:33:10;5.83;;;4.33;;
12925;SDS011;6529;50.566;9.774;2023-02-28T08:35:36;5.40;;;3.77;;
12925;SDS011;6529;50.566;9.774;2023-02-28T08:38:02;5.20;;;4.23;;
12925;SDS011;6529;50.566;9.774;2023-02-28T08:40:27;4.80;;;3.93;;
12925;SDS011;6529;50.566;9.774;2023-02-28T08:42:53;6.03;;;4.57;;
12925;SDS011;6529;50.566;9.774;2023-02-28T08:45:19;4.97;;;4.03;;
12925;SDS011;6529;50.566;9.774;2023-02-28T08:47:44;6.53;;;5.30;;
12925;SDS011;6529;50.566;9.774;2023-02-28T08:50:10;6.33;;;4.83;;
12925;SDS011;6529;50.566;9.774;2023-02-28T08:52:35;5.40;;;4.27;;
12925;SDS011;6529;50.566;9.774;2023-02-28T08:55:01;4.77;;;4.00;;
12925;SDS011;6529;50.566;9.774;2023-02-28T08:57:26;11.23;;;8.27;;
12925;SDS011;6529;50.566;9.774;2023-02-28T08:59:52;4.90;;;4.00;;
12925;SDS011;6529;50.566;9.774;2023-02-28T09:02:18;5.00;;;4.13;;
12925;SDS011;6529;50.566;9.774;2023-02-28T09:04:43;6.07;;;4.40;;
12925;SDS011;6529;50.566;9.774;2023-02-28T09:07:12;4.23;;;3.70;;
12925;SDS011;6529;50.566;9.774;2023-02-28T09:09:37;5.53;;;3.77;;
12925;SDS011;6529;50.566;9.774;2023-02-28T09:12:18;6.40;;;4.17;;
12925;SDS011;6529;50.566;9.774;2023-02-28T09:14:47;4.37;;;3.63;;
12925;SDS011;6529;50.566;9.774;2023-02-28T09:17:12;4.23;;;3.57;;
12925;SDS011;6529;50.566;9.774;2023-02-28T09:19:38;4.40;;;3.37;;
12925;SDS011;6529;50.566;9.774;2023-02-28T09:22:04;5.30;;;3.80;;
12925;SDS011;6529;50.566;9.774;2023-02-28T09:24:29;4.13;;;3.73;;
12925;SDS011;6529;50.566;9.774;2023-02-28T09:26:56;4.57;;;3.30;;
12925;SDS011;6529;50.566;9.774;2023-02-28T09:29:22;4.47;;;3.43;;
12925;SDS011;6529;50.566;9.774;2023-02-28T09:31:47;4.83;;;4.10;;
12925;SDS011;6529;50.566;9.774;2023-02-28T09:34:13;4.50;;;3.20;;
12925;SDS011;6529;50.566;9.774;2023-02-28T09:36:39;4.07;;;3.00;;
12925;SDS011;6529;50.566;9.774;2023-02-28T09:39:04;5.97;;;3.50;;
12925;SDS011;6529;50.566;9.774;2023-02-28T09:41:33;5.43;;;3.50;;
12925;SDS011;6529;50.566;9.774;2023-02-28T09:46:57;4.43;;;3.30;;
12925;SDS011;6529;50.566;9.774;2023-02-28T09:50:03;4.20;;;3.60;;
12925;SDS011;6529;50.566;9.774;2023-02-28T09:52:19;4.07;;;3.57;;
12925;SDS011;6529;50.566;9.774;2023-02-28T09:54:48;4.30;;;3.50;;
12925;SDS011;6529;50.566;9.774;2023-02-28T09:57:33;5.53;;;3.63;;
12925;SDS011;6529;50.566;9.774;2023-02-28T10:02:42;5.50;;;4.00;;
12925;SDS011;6529;50.566;9.774;2023-02-28T10:05:12;4.10;;;3.50;;
12925;SDS011;6529;50.566;9.774;2023-02-28T10:12:59;4.47;;;3.30;;
12925;SDS011;6529;50.566;9.774;2023-02-28T10:15:29;4.67;;;3.60;;
12925;SDS011;6529;50.566;9.774;2023-02-28T10:18:01;8.47;;;4.50;;
12925;SDS011;6529;50.566;9.774;2023-02-28T10:20:30;7.23;;;4.70;;
12925;SDS011;6529;50.566;9.774;2023-02-28T10:25:55;4.67;;;3.50;;
12925;SDS011;6529;50.566;9.774;2023-02-28T10:28:24;4.40;;;3.27;;
12925;SDS011;6529;50.566;9.774;2023-02-28T10:30:53;5.17;;;3.37;;
12925;SDS011;6529;50.566;9.774;2023-02-28T10:36:03;4.10;;;3.13;;
12925;SDS011;6529;50.566;9.774;2023-02-28T10:41:26;7.13;;;4.70;;
12925;SDS011;6529;50.566;9.774;2023-02-28T10:43:53;3.93;;;3.37;;
12925;SDS011;6529;50.566;9.774;2023-02-28T10:46:46;5.07;;;3.80;;
12925;SDS011;6529;50.566;9.774;2023-02-28T10:49:14;4.47;;;3.53;;
12925;SDS011;6529;50.566;9.774;2023-02-28T10:51:49;5.00;;;3.70;;
12925;SDS011;6529;50.566;9.774;2023-02-28T10:54:30;5.10;;;4.10;;
12925;SDS011;6529;50.566;9.774;2023-02-28T10:57:19;4.93;;;3.57;;
12925;SDS011;6529;50.566;9.774;2023-02-28T10:59:50;5.00;;;3.80;;
12925;SDS011;6529;50.566;9.774;2023-02-28T11:04:58;5.93;;;3.93;;
12925;SDS011;6529;50.566;9.774;2023-02-28T11:07:23;6.87;;;3.87;;
12925;SDS011;6529;50.566;9.774;2023-02-28T11:09:51;15.70;;;8.10;;
12925;SDS011;6529;50.566;9.774;2023-02-28T11:12:28;21.20;;;11.80;;
12925;SDS011;6529;50.566;9.774;2023-02-28T11:15:06;6.83;;;4.83;;
12925;SDS011;6529;50.566;9.774;2023-02-28T11:17:56;15.23;;;9.67;;
12925;SDS011;6529;50.566;9.774;2023-02-28T11:20:26;7.70;;;4.60;;
12925;SDS011;6529;50.566;9.774;2023-02-28T11:22:57;7.13;;;4.67;;
12925;SDS011;6529;50.566;9.774;2023-02-28T11:25:26;6.37;;;4.07;;
12925;SDS011;6529;50.566;9.774;2023-02-28T11:28:02;8.87;;;5.43;;
12925;SDS011;6529;50.566;9.774;2023-02-28T11:30:51;8.20;;;4.87;;
12925;SDS011;6529;50.566;9.774;2023-02-28T11:36:14;8.87;;;6.17;;
12925;SDS011;6529;50.566;9.774;2023-02-28T11:38:51;7.67;;;4.50;;
12925;SDS011;6529;50.566;9.774;2023-02-28T11:57:16;13.70;;;7.80;;
12925;SDS011;6529;50.566;9.774;2023-02-28T11:59:51;7.20;;;4.83;;
12925;SDS011;6529;50.566;9.774;2023-02-28T12:02:26;6.37;;;4.60;;
12925;SDS011;6529;50.566;9.774;2023-02-28T12:10:24;11.87;;;6.40;;
12925;SDS011;6529;50.566;9.774;2023-02-28T12:16:00;4.80;;;3.70;;
12925;SDS011;6529;50.566;9.774;2023-02-28T12:18:53;5.80;;;4.10;;
12925;SDS011;6529;50.566;9.774;2023-02-28T12:26:51;31.00;;;15.87;;
12925;SDS011;6529;50.566;9.774;2023-02-28T12:29:32;15.50;;;9.90;;
12925;SDS011;6529;50.566;9.774;2023-02-28T12:32:21;5.40;;;4.30;;
12925;SDS011;6529;50.566;9.774;2023-02-28T12:35:04;5.00;;;4.07;;
12925;SDS011;6529;50.566;9.774;2023-02-28T12:37:39;5.33;;;4.23;;
12925;SDS011;6529;50.566;9.774;2023-02-28T12:42:38;5.67;;;5.07;;
12925;SDS011;6529;50.566;9.774;2023-02-28T12:45:16;7.00;;;5.63;;
12925;SDS011;6529;50.566;9.774;2023-02-28T12:48:03;7.07;;;4.90;;
12925;SDS011;6529;50.566;9.774;2023-02-28T12:50:32;5.17;;;4.43;;
12925;SDS011;6529;50.566;9.774;2023-02-28T12:53:06;8.07;;;6.13;;
12925;SDS011;6529;50.566;9.774;2023-02-28T12:58:41;6.50;;;4.03;;
12925;SDS011;6529;50.566;9.774;2023-02-28T13:09:35;4.87;;;3.80;;
12925;SDS011;6529;50.566;9.774;2023-02-28T13:12:01;4.93;;;4.10;;
12925;SDS011;6529;50.566;9.774;2023-02-28T13:14:38;7.03;;;5.10;;
12925;SDS011;6529;50.566;9.774;2023-02-28T13:22:04;6.70;;;5.13;;
12925;SDS011;6529;50.566;9.774;2023-02-28T13:29:41;6.00;;;4.10;;
12925;SDS011;6529;50.566;9.774;2023-02-28T13:47:28;5.73;;;5.13;;
12925;SDS011;6529;50.566;9.774;2023-02-28T13:52:52;5.37;;;4.17;;
12925;SDS011;6529;50.566;9.774;2023-02-28T13:55:32;5.30;;;4.40;;
12925;SDS011;6529;50.566;9.774;2023-02-28T14:06:37;5.23;;;4.50;;
12925;SDS011;6529;50.566;9.774;2023-02-28T14:11:46;4.77;;;3.90;;
12925;SDS011;6529;50.566;9.774;2023-02-28T14:16:59;6.63;;;4.23;;
12925;SDS011;6529;50.566;9.774;2023-02-28T14:19:31;4.67;;;4.07;;
12925;SDS011;6529;50.566;9.774;2023-02-28T14:24:59;5.23;;;4.40;;
12925;SDS011;6529;50.566;9.774;2023-02-28T14:30:43;7.77;;;5.33;;
12925;SDS011;6529;50.566;9.774;2023-02-28T14:33:41;5.30;;;4.00;;
12925;SDS011;6529;50.566;9.774;2023-02-28T14:39:05;5.27;;;4.30;;
12925;SDS011;6529;50.566;9.774;2023-02-28T14:41:36;6.23;;;4.90;;
12925;SDS011;6529;50.566;9.774;2023-02-28T14:44:23;6.10;;;4.17;;
12925;SDS011;6529;50.566;9.774;2023-02-28T14:46:53;6.57;;;4.40;;
12925;SDS011;6529;50.566;9.774;2023-02-28T14:49:29;4.97;;;4.43;;
12925;SDS011;6529;50.566;9.774;2023-02-28T14:54:58;5.67;;;4.50;;
12925;SDS011;6529;50.566;9.774;2023-02-28T15:00:15;6.27;;;4.40;;
12925;SDS011;6529;50.566;9.774;2023-02-28T15:02:47;5.77;;;4.13;;
12925;SDS011;6529;50.566;9.774;2023-02-28T15:07:38;5.97;;;4.63;;
12925;SDS011;6529;50.566;9.774;2023-02-28T15:10:21;5.07;;;4.30;;
12925;SDS011;6529;50.566;9.774;2023-02-28T15:15:25;5.63;;;4.60;;
12925;SDS011;6529;50.566;9.774;2023-02-28T15:17:55;5.53;;;4.40;;
12925;SDS011;6529;50.566;9.774;2023-02-28T15:20:22;6.30;;;4.30;;
12925;SDS011;6529;50.566;9.774;2023-02-28T15:22:49;5.47;;;4.37;;
12925;SDS011;6529;50.566;9.774;2023-02-28T15:25:18;6.13;;;4.63;;
12925;SDS011;6529;50.566;9.774;2023-02-28T15:27:50;5.67;;;4.20;;
12925;SDS011;6529;50.566;9.774;2023-02-28T15:30:22;5.53;;;4.67;;
12925;SDS011;6529;50.566;9.774;2023-02-28T15:33:02;4.90;;;4.40;;
12925;SDS011;6529;50.566;9.774;2023-02-28T15:35:33;5.83;;;4.17;;
12925;SDS011;6529;50.566;9.774;2023-02-28T15:40:44;4.93;;;4.43;;
12925;SDS011;6529;50.566;9.774;2023-02-28T15:43:36;6.03;;;4.63;;
12925;SDS011;6529;50.566;9.774;2023-02-28T15:46:05;6.87;;;4.50;;
12925;SDS011;6529;50.566;9.774;2023-02-28T15:48:50;5.73;;;4.30;;
12925;SDS011;6529;50.566;9.774;2023-02-28T15:51:22;6.60;;;4.67;;
12925;SDS011;6529;50.566;9.774;2023-02-28T15:54:00;6.87;;;4.97;;
12925;SDS011;6529;50.566;9.774;2023-02-28T15:56:30;6.43;;;4.67;;
12925;SDS011;6529;50.566;9.774;2023-02-28T15:59:18;5.53;;;4.67;;
12925;SDS011;6529;50.566;9.774;2023-02-28T16:07:43;5.30;;;4.20;;
12925;SDS011;6529;50.566;9.774;2023-02-28T16:10:10;6.53;;;4.80;;
12925;SDS011;6529;50.566;9.774;2023-02-28T16:12:39;6.70;;;4.60;;
12925;SDS011;6529;50.566;9.774;2023-02-28T16:15:19;6.90;;;4.80;;
12925;SDS011;6529;50.566;9.774;2023-02-28T16:17:46;6.73;;;4.67;;
12925;SDS011;6529;50.566;9.774;2023-02-28T16:20:16;7.73;;;4.80;;
12925;SDS011;6529;50.566;9.774;2023-02-28T16:22:47;6.07;;;4.70;;
12925;SDS011;6529;50.566;9.774;2023-02-28T16:25:13;6.10;;;4.77;;
12925;SDS011;6529;50.566;9.774;2023-02-28T16:27:44;7.07;;;4.60;;
12925;SDS011;6529;50.566;9.774;2023-02-28T16:30:16;6.13;;;4.70;;
12925;SDS011;6529;50.566;9.774;2023-02-28T16:32:47;6.33;;;4.90;;
12925;SDS011;6529;50.566;9.774;2023-02-28T16:35:13;5.83;;;4.80;;
12925;SDS011;6529;50.566;9.774;2023-02-28T16:37:39;6.40;;;5.03;;
12925;SDS011;6529;50.566;9.774;2023-02-28T16:40:06;6.77;;;5.27;;
12925;SDS011;6529;50.566;9.774;2023-02-28T16:42:36;7.47;;;5.40;;
12925;SDS011;6529;50.566;9.774;2023-02-28T16:45:03;6.43;;;5.10;;
12925;SDS011;6529;50.566;9.774;2023-02-28T16:47:28;6.90;;;5.30;;
12925;SDS011;6529;50.566;9.774;2023-02-28T16:49:56;7.97;;;4.77;;
12925;SDS011;6529;50.566;9.774;2023-02-28T16:52:22;6.83;;;4.97;;
12925;SDS011;6529;50.566;9.774;2023-02-28T16:54:47;5.73;;;4.90;;
12925;SDS011;6529;50.566;9.774;2023-02-28T16:57:22;7.80;;;4.70;;
12925;SDS011;6529;50.566;9.774;2023-02-28T16:59:49;7.43;;;5.43;;
12925;SDS011;6529;50.566;9.774;2023-02-28T17:02:18;9.23;;;5.57;;
12925;SDS011;6529;50.566;9.774;2023-02-28T17:04:44;9.10;;;5.60;;
12925;SDS011;6529;50.566;9.774;2023-02-28T17:07:11;5.87;;;5.17;;
12925;SDS011;6529;50.566;9.774;2023-02-28T17:09:38;7.13;;;4.90;;
12925;SDS011;6529;50.566;9.774;2023-02-28T17:12:04;7.57;;;5.10;;
12925;SDS011;6529;50.566;9.774;2023-02-28T17:14:30;7.20;;;5.33;;
12925;SDS011;6529;50.566;9.774;2023-02-28T17:16:56;7.27;;;5.17;;
12925;SDS011;6529;50.566;9.774;2023-02-28T17:19:21;7.90;;;5.13;;
12925;SDS011;6529;50.566;9.774;2023-02-28T17:21:47;6.83;;;5.10;;
12925;SDS011;6529;50.566;9.774;2023-02-28T17:24:12;6.77;;;5.13;;
12925;SDS011;6529;50.566;9.774;2023-02-28T17:26:39;8.80;;;5.37;;
12925;SDS011;6529;50.566;9.774;2023-02-28T17:29:09;7.57;;;5.60;;
12925;SDS011;6529;50.566;9.774;2023-02-28T17:31:44;9.77;;;5.50;;
12925;SDS011;6529;50.566;9.774;2023-02-28T17:34:10;6.47;;;5.43;;
12925;SDS011;6529;50.566;9.774;2023-02-28T17:36:36;7.57;;;5.43;;
12925;SDS011;6529;50.566;9.774;2023-02-28T17:39:03;8.33;;;5.70;;
12925;SDS011;6529;50.566;9.774;2023-02-28T17:41:33;7.87;;;5.70;;
12925;SDS011;6529;50.566;9.774;2023-02-28T17:43:59;7.83;;;5.03;;
12925;SDS011;6529;50.566;9.774;2023-02-28T17:46:25;7.00;;;5.13;;
12925;SDS011;6529;50.566;9.774;2023-02-28T17:48:51;8.13;;;5.40;;
12925;SDS011;6529;50.566;9.774;2023-02-28T17:51:18;8.20;;;5.70;;
12925;SDS011;6529;50.566;9.774;2023-02-28T17:53:46;7.83;;;6.00;;
12925;SDS011;6529;50.566;9.774;2023-02-28T17:56:17;8.23;;;5.70;;
12925;SDS011;6529;50.566;9.774;2023-02-28T17:58:45;7.27;;;5.63;;
12925;SDS011;6529;50.566;9.774;2023-02-28T18:01:10;6.70;;;5.60;;
12925;SDS011;6529;50.566;9.774;2023-02-28T18:03:36;11.43;;;6.03;;
12925;SDS011;6529;50.566;9.774;2023-02-28T18:06:02;8.00;;;5.90;;
12925;SDS011;6529;50.566;9.774;2023-02-28T18:08:28;9.90;;;6.33;;
12925;SDS011;6529;50.566;9.774;2023-02-28T18:10:54;8.10;;;6.00;;
12925;SDS011;6529;50.566;9.774;2023-02-28T18:13:19;7.33;;;5.90;;
12925;SDS011;6529;50.566;9.774;2023-02-28T18:15:45;9.57;;;6.37;;
12925;SDS011;6529;50.566;9.774;2023-02-28T18:18:12;7.83;;;5.90;;